createdAt,value
2022-10-06T00:00:04.378Z,101519.81
2022-10-06T00:03:06.241Z,101518.50
2022-10-06T00:06:08.323Z,101522.50
2022-10-06T00:09:10.157Z,101518.88
2022-10-06T00:12:12.156Z,101517.78
2022-10-06T00:15:16.079Z,101521.22
2022-10-06T00:18:17.921Z,101512.25
2022-10-06T00:21:19.976Z,101522.38
2022-10-06T00:24:21.756Z,101518.97
2022-10-06T00:27:23.609Z,101514.69
2022-10-06T00:30:26.197Z,101522.19
2022-10-06T00:33:28.029Z,101526.69
2022-10-06T00:36:29.829Z,101526.06
2022-10-06T00:39:31.659Z,101518.56
2022-10-06T00:42:33.678Z,101523.97
2022-10-06T00:45:38.629Z,101519.56
2022-10-06T00:48:40.443Z,101507.81
2022-10-06T00:51:45.177Z,101514.06
2022-10-06T00:54:46.981Z,101518.59
2022-10-06T00:57:48.869Z,101516.59
2022-10-06T01:00:54.141Z,101518.66
2022-10-06T01:03:57.772Z,101520.06
2022-10-06T01:06:59.616Z,101515.72
2022-10-06T01:10:01.463Z,101512.50
2022-10-06T01:13:03.341Z,101511.28
2022-10-06T01:16:11.147Z,101516.81
2022-10-06T01:19:43.212Z,101526.91
2022-10-06T01:22:45.904Z,101521.16
2022-10-06T01:25:47.699Z,101515.25
2022-10-06T01:28:49.739Z,101516.72
2022-10-06T01:31:51.559Z,101518.28
2022-10-06T01:34:53.384Z,101520.88
2022-10-06T01:37:58.725Z,101524.22
2022-10-06T01:41:00.590Z,101518.44
2022-10-06T01:44:02.520Z,101526.94
2022-10-06T01:47:04.957Z,101529.31
2022-10-06T01:50:08.128Z,101536.47
2022-10-06T01:53:10.304Z,101541.28
2022-10-06T01:56:12.216Z,101542.50
2022-10-06T01:59:14.130Z,101541.81
2022-10-06T02:02:15.965Z,101538.44
2022-10-06T02:05:17.977Z,101531.09
2022-10-06T02:08:19.762Z,101530.25
2022-10-06T02:11:21.598Z,101544.09
2022-10-06T02:14:23.484Z,101539.47
2022-10-06T02:17:25.284Z,101545.66
2022-10-06T02:20:27.247Z,101541.50
2022-10-06T02:23:29.834Z,101545.84
2022-10-06T02:26:32.201Z,101549.38
2022-10-06T02:29:34.257Z,101545.53
2022-10-06T02:32:36.781Z,101548.91
2022-10-06T02:35:38.614Z,101552.59
2022-10-06T02:38:41.772Z,101553.34
2022-10-06T02:41:43.598Z,101546.97
2022-10-06T02:44:45.384Z,101552.69
2022-10-06T02:47:47.206Z,101548.91
2022-10-06T02:50:55.242Z,101555.50
2022-10-06T02:53:57.065Z,101549.25
2022-10-06T02:56:58.898Z,101549.63
2022-10-06T03:00:00.729Z,101539.19
2022-10-06T03:03:02.629Z,101561.22
2022-10-06T03:06:05.834Z,101543.13
2022-10-06T03:09:08.305Z,101548.75
2022-10-06T03:12:10.159Z,101550.66
2022-10-06T03:15:11.985Z,101553.38
2022-10-06T03:18:13.836Z,101539.00
2022-10-06T03:21:16.196Z,101548.22
2022-10-06T03:24:18.128Z,101554.53
2022-10-06T03:27:19.979Z,101552.88
2022-10-06T03:30:21.922Z,101558.41
2022-10-06T03:33:23.763Z,101548.63
2022-10-06T03:36:26.801Z,101555.50
2022-10-06T03:39:28.696Z,101551.22
2022-10-06T03:42:32.376Z,101551.13
2022-10-06T03:45:34.842Z,101557.75
2022-10-06T03:48:36.632Z,101557.56
2022-10-06T03:51:39.874Z,101544.97
2022-10-06T03:54:41.728Z,101562.16
2022-10-06T03:57:43.647Z,101551.31
2022-10-06T04:00:48.706Z,101558.84
2022-10-06T04:03:50.901Z,101554.09
2022-10-06T04:06:52.726Z,101561.97
2022-10-06T04:09:54.573Z,101572.34
2022-10-06T04:12:56.348Z,101569.16
2022-10-06T04:15:58.255Z,101575.91
2022-10-06T04:19:04.703Z,101571.50
2022-10-06T04:22:06.682Z,101575.66
2022-10-06T04:25:08.641Z,101578.41
2022-10-06T04:28:10.817Z,101569.66
2022-10-06T04:31:16.942Z,101580.44
2022-10-06T04:34:18.804Z,101580.84
2022-10-06T04:37:20.989Z,101577.91
2022-10-06T04:40:22.816Z,101574.53
2022-10-06T04:43:25.052Z,101577.09
2022-10-06T04:46:44.095Z,101570.81
2022-10-06T04:49:46.697Z,101564.91
2022-10-06T04:52:48.535Z,101561.38
2022-10-06T04:56:10.485Z,101562.63
2022-10-06T04:59:12.307Z,101573.22
2022-10-06T05:02:14.174Z,101570.13
2022-10-06T05:05:16.082Z,101577.41
2022-10-06T05:08:18.135Z,101585.53
2022-10-06T05:11:23.667Z,101578.50
2022-10-06T05:14:27.586Z,101580.78
2022-10-06T05:17:29.448Z,101579.06
2022-10-06T05:20:31.411Z,101583.69
2022-10-06T05:23:34.382Z,101579.41
2022-10-06T05:26:36.753Z,101583.53
2022-10-06T05:29:39.460Z,101579.06
2022-10-06T05:32:41.295Z,101585.50
2022-10-06T05:35:50.603Z,101582.41
2022-10-06T05:38:52.809Z,101585.91
2022-10-06T05:41:56.964Z,101579.22
2022-10-06T05:44:58.836Z,101581.66
2022-10-06T05:48:00.661Z,101581.28
2022-10-06T05:51:03.915Z,101582.97
2022-10-06T05:54:06.032Z,101573.28
2022-10-06T05:57:08.288Z,101586.75
2022-10-06T06:00:10.443Z,101594.16
2022-10-06T06:03:12.290Z,101587.25
2022-10-06T06:06:18.964Z,101595.09
2022-10-06T06:09:21.422Z,101593.81
2022-10-06T06:12:23.253Z,101601.16
2022-10-06T06:15:43.759Z,101603.69
2022-10-06T06:18:46.102Z,101611.91
2022-10-06T06:21:48.143Z,101614.81
2022-10-06T06:24:50.005Z,101619.50
2022-10-06T06:27:54.167Z,101611.03
2022-10-06T06:31:03.003Z,101625.31
2022-10-06T06:34:06.609Z,101626.50
2022-10-06T06:37:15.047Z,101631.59
2022-10-06T06:40:17.338Z,101645.66
2022-10-06T06:43:19.280Z,101647.34
2022-10-06T06:46:25.185Z,101634.44
2022-10-06T06:49:29.590Z,101639.22
2022-10-06T06:52:32.395Z,101648.50
2022-10-06T06:55:34.455Z,101643.47
2022-10-06T06:58:36.615Z,101640.63
2022-10-06T07:01:47.537Z,101648.41
2022-10-06T07:04:49.451Z,101653.38
2022-10-06T07:07:51.552Z,101645.03
2022-10-06T07:10:55.353Z,101650.34
2022-10-06T07:13:58.312Z,101650.66
2022-10-06T07:17:18.995Z,101654.13
2022-10-06T07:20:39.865Z,101655.13
2022-10-06T07:24:00.330Z,101653.50
2022-10-06T07:27:02.269Z,101651.38
2022-10-06T07:30:04.718Z,101661.28
2022-10-06T07:33:09.072Z,101658.72
2022-10-06T07:36:11.385Z,101665.78
2022-10-06T07:39:13.945Z,101661.25
2022-10-06T07:42:17.224Z,101655.94
2022-10-06T07:45:39.219Z,101665.81
2022-10-06T07:48:41.478Z,101665.84
2022-10-06T07:51:44.020Z,101669.75
2022-10-06T07:54:46.080Z,101677.16
2022-10-06T07:57:50.982Z,101675.78
2022-10-06T08:00:53.187Z,101666.38
2022-10-06T08:03:55.201Z,101686.12
2022-10-06T08:06:58.676Z,101685.19
2022-10-06T08:10:02.225Z,101681.44
2022-10-06T08:13:05.222Z,101678.25
2022-10-06T08:16:08.633Z,101691.84
2022-10-06T08:19:11.835Z,101693.94
2022-10-06T08:22:16.135Z,101689.78
2022-10-06T08:25:18.156Z,101688.09
2022-10-06T08:28:20.671Z,101689.16
2022-10-06T08:31:22.842Z,101679.62
2022-10-06T08:34:24.963Z,101681.44
2022-10-06T08:37:27.505Z,101690.78
2022-10-06T08:40:31.619Z,101690.00
2022-10-06T08:43:33.569Z,101686.75
2022-10-06T08:46:46.893Z,101688.16
2022-10-06T08:49:49.595Z,101684.69
2022-10-06T08:53:01.562Z,101690.16
2022-10-06T08:56:08.391Z,101678.31
2022-10-06T08:59:10.681Z,101683.31
2022-10-06T09:02:16.615Z,101682.94
2022-10-06T09:05:25.345Z,101677.91
2022-10-06T09:08:47.618Z,101682.62
2022-10-06T09:12:11.600Z,101691.37
2022-10-06T09:15:19.630Z,101684.69
2022-10-06T09:18:23.731Z,101674.22
2022-10-06T09:21:35.372Z,101683.94
2022-10-06T09:24:47.516Z,101676.03
2022-10-06T09:27:53.368Z,101681.75
2022-10-06T09:30:55.557Z,101682.53
2022-10-06T09:34:24.598Z,101677.13
2022-10-06T09:37:27.012Z,101685.28
2022-10-06T09:40:32.002Z,101676.66
2022-10-06T09:43:33.830Z,101670.16
2022-10-06T09:46:39.847Z,101673.16
2022-10-06T09:49:42.986Z,101673.28
2022-10-06T09:53:06.379Z,101671.75
2022-10-06T09:56:21.449Z,101662.16
2022-10-06T09:59:30.147Z,101674.00
2022-10-06T10:02:42.787Z,101677.75
2022-10-06T10:05:54.785Z,101671.28
2022-10-06T10:09:17.837Z,101678.94
2022-10-06T10:12:28.502Z,101671.50
2022-10-06T10:15:32.647Z,101669.56
2022-10-06T10:18:36.257Z,101670.78
2022-10-06T10:21:39.913Z,101672.44
2022-10-06T10:24:57.670Z,101667.97
2022-10-06T10:28:26.062Z,101672.59
2022-10-06T10:31:34.460Z,101659.22
2022-10-06T10:34:50.218Z,101663.56
2022-10-06T10:38:01.584Z,101651.13
2022-10-06T10:41:17.092Z,101654.09
2022-10-06T10:44:29.932Z,101652.94
2022-10-06T10:47:34.601Z,101650.87
2022-10-06T10:50:42.527Z,101648.47
2022-10-06T10:53:44.467Z,101655.03
2022-10-06T10:56:49.339Z,101644.84
2022-10-06T11:00:02.647Z,101648.72
2022-10-06T11:03:04.701Z,101651.56
2022-10-06T11:06:16.127Z,101658.09
2022-10-06T11:09:18.973Z,101646.31
2022-10-06T11:12:24.904Z,101656.16
2022-10-06T11:15:35.974Z,101657.72
2022-10-06T11:18:37.740Z,101644.72
2022-10-06T11:21:41.983Z,101652.19
2022-10-06T11:24:53.402Z,101646.53
2022-10-06T11:28:04.664Z,101651.38
2022-10-06T11:31:21.815Z,101651.38
2022-10-06T11:34:24.976Z,101643.87
2022-10-06T11:37:32.818Z,101639.38
2022-10-06T11:40:53.591Z,101634.56
2022-10-06T11:44:15.810Z,101625.69
2022-10-06T11:47:35.001Z,101628.56
2022-10-06T11:50:42.854Z,101628.00
2022-10-06T11:53:44.956Z,101627.50
2022-10-06T11:56:46.801Z,101622.16
2022-10-06T11:59:54.758Z,101627.72
2022-10-06T12:02:56.751Z,101626.22
2022-10-06T12:05:58.745Z,101628.53
2022-10-06T12:09:01.950Z,101625.44
2022-10-06T12:12:17.881Z,101627.38
2022-10-06T12:19:28.900Z,101618.59
2022-10-06T12:22:32.181Z,101616.53
2022-10-06T12:25:52.983Z,101611.62
2022-10-06T12:29:18.534Z,101609.13
2022-10-06T12:32:39.284Z,101612.87
2022-10-06T12:35:41.132Z,101612.41
2022-10-06T12:38:43.962Z,101614.41
2022-10-06T12:41:59.406Z,101605.34
2022-10-06T12:45:01.740Z,101607.44
2022-10-06T12:48:04.009Z,101611.84
2022-10-06T12:51:05.902Z,101603.44
2022-10-06T12:54:19.755Z,101594.34
2022-10-06T12:57:23.347Z,101596.00
2022-10-06T13:00:28.016Z,101590.69
2022-10-06T13:03:29.920Z,101591.16
2022-10-06T13:06:31.861Z,101591.69
2022-10-06T13:09:34.526Z,101590.09
2022-10-06T13:12:39.650Z,101589.69
2022-10-06T13:15:42.628Z,101584.72
2022-10-06T13:18:44.417Z,101576.59
2022-10-06T13:21:46.286Z,101578.03
2022-10-06T13:24:48.174Z,101565.03
2022-10-06T13:27:50.921Z,101555.81
2022-10-06T13:30:53.819Z,101556.50
2022-10-06T13:34:11.680Z,101550.53
2022-10-06T13:37:14.590Z,101552.41
2022-10-06T13:40:21.896Z,101559.91
2022-10-06T13:43:29.536Z,101563.16
2022-10-06T13:46:32.409Z,101553.13
2022-10-06T13:49:36.580Z,101556.16
2022-10-06T13:52:39.132Z,101562.69
2022-10-06T13:55:41.251Z,101557.16
2022-10-06T13:58:45.415Z,101563.66
2022-10-06T14:01:47.870Z,101570.09
2022-10-06T14:05:08.307Z,101557.59
2022-10-06T14:08:10.583Z,101562.00
2022-10-06T14:14:15.239Z,101573.47
2022-10-06T14:17:23.873Z,101567.62
2022-10-06T14:20:41.514Z,101572.03
2022-10-06T14:23:44.567Z,101580.34
2022-10-06T14:26:47.030Z,101580.75
2022-10-06T14:29:48.940Z,101579.78
2022-10-06T14:32:50.896Z,101578.59
2022-10-06T14:35:52.919Z,101578.66
2022-10-06T14:38:55.425Z,101579.31
2022-10-06T14:41:57.922Z,101584.06
2022-10-06T14:45:00.262Z,101582.94
2022-10-06T14:48:04.434Z,101592.38
2022-10-06T14:51:06.832Z,101581.25
2022-10-06T14:54:10.794Z,101590.16
2022-10-06T14:57:13.395Z,101595.22
2022-10-06T15:00:15.385Z,101600.38
2022-10-06T15:03:17.305Z,101604.69
2022-10-06T15:06:37.849Z,101599.13
2022-10-06T15:09:39.720Z,101594.69
2022-10-06T15:12:41.552Z,101603.69
2022-10-06T15:15:43.401Z,101601.91
2022-10-06T15:18:45.379Z,101598.78
2022-10-06T15:21:47.187Z,101608.69
2022-10-06T15:24:51.378Z,101613.37
2022-10-06T15:28:12.185Z,101611.34
2022-10-06T15:31:20.437Z,101621.47
2022-10-06T15:34:25.305Z,101615.59
2022-10-06T15:37:27.096Z,101619.31
2022-10-06T15:40:29.065Z,101623.84
2022-10-06T15:43:51.590Z,101628.09
2022-10-06T15:46:54.425Z,101630.50
2022-10-06T15:49:56.482Z,101625.88
2022-10-06T15:52:58.330Z,101639.66
2022-10-06T15:56:00.175Z,101636.81
2022-10-06T15:59:02.576Z,101641.91
2022-10-06T16:02:07.559Z,101639.59
2022-10-06T16:05:09.671Z,101654.06
2022-10-06T16:08:11.514Z,101635.16
2022-10-06T16:11:13.811Z,101649.63
2022-10-06T16:14:16.171Z,101654.69
2022-10-06T16:17:18.148Z,101669.53
2022-10-06T16:20:20.077Z,101668.63
2022-10-06T16:23:22.285Z,101661.56
2022-10-06T16:26:24.357Z,101668.34
2022-10-06T16:29:26.429Z,101665.69
2022-10-06T16:32:28.352Z,101667.03
2022-10-06T16:35:30.206Z,101671.97
2022-10-06T16:38:32.303Z,101675.47
2022-10-06T16:41:34.131Z,101677.37
2022-10-06T16:44:35.987Z,101688.03
2022-10-06T16:47:37.995Z,101689.25
2022-10-06T16:50:39.875Z,101686.47
2022-10-06T16:53:42.582Z,101694.50
2022-10-06T16:56:45.394Z,101697.22
2022-10-06T16:59:47.258Z,101690.66
2022-10-06T17:02:49.180Z,101693.59
2022-10-06T17:05:51.116Z,101698.59
2022-10-06T17:08:53.108Z,101709.19
2022-10-06T17:12:03.039Z,101709.41
2022-10-06T17:15:05.113Z,101705.53
2022-10-06T17:18:06.991Z,101708.34
2022-10-06T17:21:32.159Z,101710.09
2022-10-06T17:24:32.096Z,101699.25
2022-10-06T17:27:37.222Z,101710.00
2022-10-06T17:30:50.997Z,101719.81
2022-10-06T17:33:53.117Z,101715.97
2022-10-06T17:36:55.094Z,101717.06
2022-10-06T17:39:56.963Z,101711.28
2022-10-06T17:42:59.056Z,101710.78
2022-10-06T17:46:03.781Z,101722.41
2022-10-06T17:49:09.602Z,101721.03
2022-10-06T17:52:11.461Z,101720.19
2022-10-06T17:55:14.922Z,101724.66
2022-10-06T17:58:18.791Z,101719.31
2022-10-06T18:01:21.429Z,101714.56
2022-10-06T18:04:23.834Z,101715.31
2022-10-06T18:07:25.680Z,101705.84
2022-10-06T18:10:46.271Z,101707.47
2022-10-06T18:13:49.587Z,101711.37
2022-10-06T18:16:56.830Z,101712.50
2022-10-06T18:19:58.859Z,101717.97
2022-10-06T18:23:00.739Z,101723.22
2022-10-06T18:26:06.529Z,101719.09
2022-10-06T18:29:08.994Z,101718.75
2022-10-06T18:38:55.491Z,101722.03
2022-10-06T18:41:59.155Z,101730.34
2022-10-06T18:45:19.510Z,101730.34
2022-10-06T18:48:39.845Z,101732.34
2022-10-06T18:51:42.891Z,101737.59
2022-10-06T18:54:45.112Z,101745.31
2022-10-06T18:57:47.237Z,101739.13
2022-10-06T19:00:49.147Z,101746.44
2022-10-06T19:03:50.964Z,101752.19
2022-10-06T19:06:53.535Z,101758.31
2022-10-06T19:09:55.360Z,101754.19
2022-10-06T19:12:58.331Z,101746.63
2022-10-06T19:16:00.138Z,101749.84
2022-10-06T19:19:07.421Z,101746.22
2022-10-06T19:22:10.419Z,101736.25
2022-10-06T19:25:13.130Z,101739.28
2022-10-06T19:28:15.743Z,101736.31
2022-10-06T19:31:20.039Z,101738.69
2022-10-06T19:34:22.879Z,101741.41
2022-10-06T19:37:27.041Z,101742.47
2022-10-06T19:40:28.946Z,101751.19
2022-10-06T19:43:31.050Z,101748.37
2022-10-06T19:46:32.874Z,101755.91
2022-10-06T19:49:35.310Z,101767.25
2022-10-06T19:52:37.614Z,101760.53
2022-10-06T19:55:39.526Z,101768.22
2022-10-06T19:58:41.315Z,101781.97
2022-10-06T20:01:43.403Z,101773.69
2022-10-06T20:04:45.495Z,101766.75
2022-10-06T20:07:47.587Z,101780.62
2022-10-06T20:10:49.498Z,101780.31
2022-10-06T20:13:51.379Z,101776.81
2022-10-06T20:16:53.769Z,101775.53
2022-10-06T20:19:57.731Z,101795.03
2022-10-06T20:22:59.910Z,101788.63
2022-10-06T20:26:12.045Z,101794.41
2022-10-06T20:29:14.635Z,101777.78
2022-10-06T20:32:16.477Z,101781.97
2022-10-06T20:35:18.253Z,101783.66
2022-10-06T20:38:40.016Z,101781.22
2022-10-06T20:41:42.325Z,101806.41
2022-10-06T20:44:44.162Z,101802.53
2022-10-06T20:47:47.937Z,101792.69
2022-10-06T20:50:49.822Z,101800.50
2022-10-06T20:53:52.057Z,101803.25
2022-10-06T20:56:54.573Z,101799.59
2022-10-06T20:59:56.441Z,101811.41
2022-10-06T21:02:58.306Z,101811.75
2022-10-06T21:06:00.396Z,101807.81
2022-10-06T21:09:02.366Z,101803.63
2022-10-06T21:12:05.005Z,101813.06
2022-10-06T21:15:07.137Z,101805.00
2022-10-06T21:18:09.040Z,101806.25
2022-10-06T21:21:11.453Z,101807.59
2022-10-06T21:24:13.316Z,101814.03
2022-10-06T21:27:17.046Z,101819.34
2022-10-06T21:30:18.849Z,101808.31
2022-10-06T21:33:22.649Z,101804.00
2022-10-06T21:36:25.395Z,101811.97
2022-10-06T21:39:27.260Z,101800.88
2022-10-06T21:42:29.066Z,101805.34
2022-10-06T21:45:33.170Z,101805.63
2022-10-06T21:48:35.148Z,101802.78
2022-10-06T21:51:37.239Z,101809.16
2022-10-06T21:54:39.065Z,101808.44
2022-10-06T21:57:41.230Z,101811.88
2022-10-06T22:00:43.195Z,101809.94
2022-10-06T22:03:45.361Z,101812.87
2022-10-06T22:06:50.115Z,101818.66
2022-10-06T22:09:52.045Z,101815.75
2022-10-06T22:12:53.905Z,101819.13
2022-10-06T22:15:55.734Z,101818.97
2022-10-06T22:18:57.949Z,101815.34
2022-10-06T22:21:59.706Z,101815.56
2022-10-06T22:25:01.564Z,101818.09
2022-10-06T22:28:03.371Z,101815.69
2022-10-06T22:31:08.815Z,101813.63
2022-10-06T22:34:11.826Z,101804.47
2022-10-06T22:37:13.803Z,101814.53
2022-10-06T22:40:15.565Z,101816.03
2022-10-06T22:43:17.361Z,101812.44
2022-10-06T22:46:19.251Z,101807.69
2022-10-06T22:49:21.239Z,101803.41
2022-10-06T22:52:23.107Z,101789.72
2022-10-06T22:55:24.940Z,101797.34
2022-10-06T22:58:26.982Z,101794.06
2022-10-06T23:01:29.387Z,101800.56
2022-10-06T23:04:31.487Z,101794.75
2022-10-06T23:07:33.367Z,101791.03
2022-10-06T23:10:35.604Z,101791.88
2022-10-06T23:13:37.590Z,101799.50
2022-10-06T23:16:39.516Z,101796.03
2022-10-06T23:19:41.403Z,101789.13
2022-10-06T23:22:43.193Z,101788.41
2022-10-06T23:25:45.514Z,101777.06
2022-10-06T23:28:50.547Z,101786.41
2022-10-06T23:31:52.392Z,101779.28
2022-10-06T23:34:54.229Z,101774.44
2022-10-06T23:37:56.044Z,101782.50
2022-10-06T23:40:57.827Z,101789.72
2022-10-06T23:43:59.749Z,101794.94
2022-10-06T23:47:01.647Z,101783.59
2022-10-06T23:50:03.541Z,101778.56
2022-10-06T23:53:05.321Z,101783.44
2022-10-06T23:56:07.395Z,101787.09
2022-10-06T23:59:09.191Z,101793.25
